Time;durP1;ratioP1;P1;durP2;ratioP2;P2;SDS_P1;SDS_P2;PMS_P1;PMS_P2;Temp;Humidity;BMP_temperature;BMP_pressure;BME280_temperature;BME280_humidity;BME280_pressure;Samples;Min_cycle;Max_cycle;Signal;HPM_P1;HPM_P2
2023/10/21 00:01:21;;;;;;;3.67;1.90;;;;;;;5.40;100.00;98600.06;4989842;28;20278;-79
2023/10/21 00:03:46;;;;;;;1.85;1.38;;;;;;;5.38;100.00;98594.13;4989819;28;20064;-78
2023/10/21 00:06:12;;;;;;;3.10;1.83;;;;;;;5.43;100.00;98593.59;4957329;28;20027;-78
2023/10/21 00:08:37;;;;;;;4.35;2.13;;;;;;;5.58;100.00;98601.53;4973781;28;20509;-79
2023/10/21 00:11:08;;;;;;;3.80;1.60;;;;;;;5.47;100.00;98594.88;4958294;28;20400;-79
2023/10/21 00:13:35;;;;;;;2.70;1.55;;;;;;;5.44;100.00;98590.75;4921455;28;20050;-79
2023/10/21 00:16:01;;;;;;;2.75;1.75;;;;;;;5.25;100.00;98589.47;4936072;28;20111;-79
2023/10/21 00:18:26;;;;;;;2.45;1.58;;;;;;;5.52;100.00;98596.97;5016845;28;20068;-78
2023/10/21 00:20:53;;;;;;;3.20;2.07;;;;;;;5.47;100.00;98592.22;4974146;28;20046;-78
2023/10/21 00:23:20;;;;;;;3.35;2.00;;;;;;;5.36;100.00;98582.09;4969920;28;20033;-79
2023/10/21 00:25:45;;;;;;;4.25;1.83;;;;;;;5.27;100.00;98578.72;4978055;28;20036;-78
2023/10/21 00:28:11;;;;;;;5.30;2.03;;;;;;;5.25;100.00;98580.72;4963261;28;20017;-77
2023/10/21 00:30:36;;;;;;;2.63;1.60;;;;;;;5.31;100.00;98579.16;5012676;28;20050;-78
2023/10/21 00:33:02;;;;;;;3.23;1.80;;;;;;;5.42;100.00;98578.72;4998539;28;20383;-78
2023/10/21 00:35:27;;;;;;;1.93;1.33;;;;;;;5.34;100.00;98581.44;5028490;28;20486;-78
2023/10/21 00:37:52;;;;;;;3.77;2.67;;;;;;;5.31;100.00;98585.28;4945037;28;20378;-78
2023/10/21 00:40:18;;;;;;;2.70;1.47;;;;;;;5.35;100.00;98604.28;4960898;28;20039;-78
2023/10/21 00:42:43;;;;;;;2.35;1.35;;;;;;;5.43;100.00;98602.38;4946222;28;20035;-78
2023/10/21 00:45:09;;;;;;;3.53;2.00;;;;;;;5.40;100.00;98612.47;4990686;28;20119;-79
2023/10/21 00:47:35;;;;;;;;;;;;;;;5.44;100.00;98606.66;4974850;28;20030;-79
2023/10/21 00:50:02;;;;;;;3.33;1.60;;;;;;;5.44;100.00;98595.25;4932542;28;20367;-78
2023/10/21 00:52:27;;;;;;;5.10;1.67;;;;;;;5.33;100.00;98593.03;5017315;28;20041;-79
2023/10/21 00:54:56;;;;;;;3.33;2.15;;;;;;;5.30;100.00;98596.88;5048802;28;20112;-79
2023/10/21 00:57:23;;;;;;;3.20;1.85;;;;;;;5.34;100.00;98610.53;5007610;28;20064;-78
2023/10/21 00:59:49;;;;;;;3.95;2.00;;;;;;;5.24;100.00;98622.25;5004420;28;20033;-78
2023/10/21 01:02:15;;;;;;;3.28;2.08;;;;;;;5.23;100.00;98628.53;4961101;28;20032;-78
2023/10/21 01:04:41;;;;;;;3.88;2.13;;;;;;;5.41;100.00;98622.91;4976326;28;20456;-78
2023/10/21 01:07:15;;;;;;;3.47;1.95;;;;;;;5.53;100.00;98615.31;4951161;28;20058;-78
2023/10/21 01:09:40;;;;;;;3.35;2.20;;;;;;;5.31;100.00;98619.66;4962136;28;20031;-78
2023/10/21 01:12:06;;;;;;;5.20;2.77;;;;;;;5.21;100.00;98613.81;5010011;28;20117;-78
2023/10/21 01:14:32;;;;;;;3.35;2.55;;;;;;;5.41;100.00;98617.59;5005886;28;20045;-79
2023/10/21 01:16:57;;;;;;;4.97;2.63;;;;;;;5.54;100.00;98629.38;4992761;28;20404;-78
2023/10/21 01:19:22;;;;;;;8.83;2.60;;;;;;;5.54;100.00;98629.38;4976608;28;20124;-78
2023/10/21 01:21:48;;;;;;;3.80;2.30;;;;;;;5.44;100.00;98625.16;4963961;23;20044;-80
2023/10/21 01:24:13;;;;;;;4.73;2.60;;;;;;;5.36;100.00;98630.56;4942909;28;20291;-79
2023/10/21 01:26:38;;;;;;;7.93;3.07;;;;;;;5.61;100.00;98628.47;4953447;28;20031;-79
2023/10/21 01:29:09;;;;;;;6.37;2.70;;;;;;;5.21;100.00;98622.56;4936567;28;20127;-78
2023/10/21 01:31:35;;;;;;;4.53;3.08;;;;;;;5.31;100.00;98618.84;4952242;28;20062;-77
2023/10/21 01:34:00;;;;;;;;;;;;;;;5.39;100.00;98635.47;4957267;28;20028;-79
2023/10/21 01:36:27;;;;;;;10.90;4.35;;;;;;;5.42;100.00;98639.59;4937577;28;19961;-77
2023/10/21 01:38:52;;;;;;;9.52;3.72;;;;;;;5.46;100.00;98644.34;4936977;28;20509;-78
2023/10/21 01:41:18;;;;;;;10.30;3.78;;;;;;;5.53;100.00;98641.78;4925318;28;20064;-78
2023/10/21 01:43:44;;;;;;;9.18;4.35;;;;;;;5.46;100.00;98641.69;4951691;28;20397;-78
2023/10/21 01:46:09;;;;;;;10.57;3.55;;;;;;;5.33;100.00;98645.97;4934506;28;20040;-78
2023/10/21 01:48:35;;;;;;;8.87;3.93;;;;;;;5.55;100.00;98638.94;4925714;28;20571;-78
2023/10/21 01:51:04;;;;;;;6.95;4.30;;;;;;;5.48;100.00;98639.69;4936676;28;20032;-79
2023/10/21 01:53:31;;;;;;;7.75;4.07;;;;;;;5.54;100.00;98632.03;4925904;28;20043;-78
2023/10/21 01:56:01;;;;;;;8.13;4.68;;;;;;;5.57;100.00;98642.25;4946505;28;20051;-78
2023/10/21 01:58:27;;;;;;;8.30;4.57;;;;;;;5.63;100.00;98644.16;4967877;28;20032;-78
2023/10/21 02:00:53;;;;;;;11.90;4.57;;;;;;;5.60;100.00;98641.91;4933148;28;20035;-78
2023/10/21 02:03:18;;;;;;;10.33;5.47;;;;;;;5.62;100.00;98645.16;4986582;28;20405;-79
2023/10/21 02:05:43;;;;;;;9.32;4.95;;;;;;;5.59;100.00;98661.41;5022389;28;20052;-77
2023/10/21 02:08:09;;;;;;;9.40;4.90;;;;;;;5.46;100.00;98651.47;4934837;28;20520;-78
2023/10/21 02:10:38;;;;;;;10.37;5.20;;;;;;;5.48;100.00;98665.34;4916975;28;20392;-78
2023/10/21 02:13:05;;;;;;;11.00;5.65;;;;;;;5.58;100.00;98665.06;4933283;28;20135;-78
2023/10/21 02:15:34;;;;;;;10.97;5.83;;;;;;;5.60;100.00;98663.06;4911191;28;20815;-78
2023/10/21 02:17:59;;;;;;;10.25;4.85;;;;;;;5.66;100.00;98651.75;4936917;28;20040;-78
2023/10/21 02:20:25;;;;;;;8.37;4.43;;;;;;;5.44;100.00;98654.28;4943913;28;20050;-78
2023/10/21 02:22:50;;;;;;;11.23;5.03;;;;;;;5.52;100.00;98653.38;4943133;28;20497;-78
2023/10/21 02:25:16;;;;;;;7.97;4.50;;;;;;;5.65;100.00;98671.28;4948517;28;20036;-78
2023/10/21 02:27:42;;;;;;;;;;;;;;;5.73;100.00;98657.94;4958322;28;20481;-78
2023/10/21 02:30:14;;;;;;;16.65;4.75;;;;;;;5.75;100.00;98655.13;4981314;28;20291;-76
2023/10/21 02:32:44;;;;;;;9.25;5.40;;;;;;;5.67;100.00;98656.88;4969307;28;20505;-78
2023/10/21 02:35:10;;;;;;;12.63;5.43;;;;;;;5.66;100.00;98672.91;4944002;28;20415;-77
2023/10/21 02:37:35;;;;;;;9.85;4.90;;;;;;;5.64;100.00;98666.97;4984154;28;20118;-78
2023/10/21 02:40:03;;;;;;;10.67;5.13;;;;;;;5.70;100.00;98666.25;4946555;28;20478;-78
2023/10/21 02:42:29;;;;;;;12.32;5.43;;;;;;;5.80;100.00;98669.44;4989797;28;20326;-77
2023/10/21 02:44:54;;;;;;;11.10;4.97;;;;;;;5.80;100.00;98664.16;4932464;28;20035;-78
2023/10/21 02:47:19;;;;;;;11.10;6.05;;;;;;;5.84;100.00;98670.75;4968759;28;20280;-78
2023/10/21 02:49:45;;;;;;;16.03;6.70;;;;;;;6.13;100.00;98667.28;4998222;28;20533;-77
2023/10/21 02:52:10;;;;;;;15.50;8.10;;;;;;;6.01;100.00;98660.00;4990555;28;20037;-78
2023/10/21 02:54:36;;;;;;;10.00;5.87;;;;;;;6.05;100.00;98666.56;4952158;28;20031;-77
2023/10/21 02:57:01;;;;;;;11.17;6.73;;;;;;;6.10;100.00;98653.59;4960514;28;20280;-78
2023/10/21 02:59:26;;;;;;;15.17;6.30;;;;;;;6.00;100.00;98656.53;4957648;28;20038;-77
2023/10/21 03:01:52;;;;;;;14.48;6.57;;;;;;;6.03;100.00;98653.50;4915288;28;20035;-78
2023/10/21 03:04:17;;;;;;;14.10;6.93;;;;;;;5.92;100.00;98660.06;4945941;28;20528;-78
2023/10/21 03:06:43;;;;;;;16.73;7.30;;;;;;;6.06;100.00;98658.44;4979862;28;20039;-77
2023/10/21 03:09:08;;;;;;;13.83;7.57;;;;;;;6.08;100.00;98656.41;4944339;29;20046;-77
2023/10/21 03:11:34;;;;;;;;;;;;;;;6.13;100.00;98650.56;4944874;28;20412;-78
2023/10/21 03:14:00;;;;;;;17.77;7.97;;;;;;;6.26;100.00;98650.72;4964122;28;19915;-77
2023/10/21 03:16:25;;;;;;;16.17;8.27;;;;;;;6.07;100.00;98638.06;4930656;28;20039;-78
2023/10/21 03:18:51;;;;;;;15.90;7.43;;;;;;;6.05;100.00;98645.38;4933643;28;20046;-77
2023/10/21 03:21:17;;;;;;;13.15;7.20;;;;;;;6.36;100.00;98663.69;4949957;28;20034;-78
2023/10/21 03:23:42;;;;;;;17.42;8.88;;;;;;;6.24;100.00;98655.38;4939863;28;20039;-77
2023/10/21 03:26:08;;;;;;;17.48;7.47;;;;;;;6.24;100.00;98650.09;4934308;28;20038;-77
2023/10/21 03:28:38;;;;;;;19.73;7.67;;;;;;;6.37;100.00;98653.91;4973505;28;20759;-78
2023/10/21 03:31:05;;;;;;;20.33;8.10;;;;;;;6.33;100.00;98653.47;4922194;28;20719;-78
2023/10/21 03:33:31;;;;;;;20.60;8.02;;;;;;;6.32;100.00;98654.44;4938658;28;20377;-78
2023/10/21 03:36:02;;;;;;;20.35;8.65;;;;;;;6.13;100.00;98655.84;4938267;28;20110;-78
2023/10/21 03:38:29;;;;;;;21.52;9.32;;;;;;;6.29;100.00;98676.03;4937910;28;20036;-77
2023/10/21 03:41:08;;;;;;;;;;;;;;;6.22;100.00;98672.47;4935537;28;20039;-77
2023/10/21 03:43:34;;;;;;;21.48;8.43;;;;;;;6.31;100.00;98676.66;4928064;28;20041;-77
2023/10/21 03:46:14;;;;;;;22.63;8.85;;;;;;;5.98;100.00;98684.19;4942412;28;20040;-78
2023/10/21 03:48:40;;;;;;;22.42;9.48;;;;;;;5.88;100.00;98692.41;4937073;28;20131;-78
2023/10/21 03:51:11;;;;;;;17.75;9.27;;;;;;;6.19;100.00;98705.47;4933315;28;20028;-77
2023/10/21 03:53:40;;;;;;;23.10;9.68;;;;;;;6.33;100.00;98701.97;4951912;28;20035;-78
2023/10/21 03:56:06;;;;;;;24.48;9.10;;;;;;;6.31;100.00;98695.22;4955417;28;20119;-77
2023/10/21 03:58:31;;;;;;;21.50;9.65;;;;;;;6.20;100.00;98696.50;4914597;28;20036;-77
2023/10/21 04:00:59;;;;;;;26.43;9.93;;;;;;;6.06;100.00;98689.38;4941662;28;20063;-78
2023/10/21 04:03:26;;;;;;;23.58;9.55;;;;;;;6.08;100.00;98703.28;4915875;28;20043;-78
2023/10/21 04:05:53;;;;;;;28.38;9.90;;;;;;;5.89;100.00;98694.03;4949438;28;20466;-78
2023/10/21 04:08:19;;;;;;;21.35;10.57;;;;;;;6.06;100.00;98695.53;4931869;28;20023;-77
2023/10/21 04:10:44;;;;;;;26.98;10.68;;;;;;;6.27;100.00;98713.31;4913961;28;20412;-78
2023/10/21 04:13:09;;;;;;;27.77;10.47;;;;;;;6.27;100.00;98713.31;4910776;28;20028;-78
2023/10/21 04:15:35;;;;;;;25.67;11.97;;;;;;;6.46;100.00;98709.28;4929126;28;20040;-78
2023/10/21 04:18:00;;;;;;;29.83;11.73;;;;;;;6.53;100.00;98709.34;4990549;28;20371;-78
2023/10/21 04:20:26;;;;;;;25.17;11.05;;;;;;;6.62;100.00;98712.72;4965581;28;20085;-78
2023/10/21 04:22:51;;;;;;;24.52;10.52;;;;;;;6.48;100.00;98704.59;4940179;28;20043;-77
2023/10/21 04:25:17;;;;;;;25.87;10.40;;;;;;;6.43;100.00;98711.47;4990426;28;20039;-78
2023/10/21 04:27:43;;;;;;;26.27;10.70;;;;;;;6.36;100.00;98711.38;4935577;28;20035;-77
2023/10/21 04:30:08;;;;;;;20.48;9.63;;;;;;;6.38;100.00;98713.88;4964312;28;20055;-78
2023/10/21 04:32:34;;;;;;;30.67;11.75;;;;;;;6.27;100.00;98710.66;4945577;28;20042;-77
2023/10/21 04:35:00;;;;;;;30.85;10.65;;;;;;;6.28;100.00;98714.16;4949212;28;20017;-78
2023/10/21 04:37:26;;;;;;;;;;;;;;;6.57;100.00;98720.41;4959138;28;20130;-78
2023/10/21 04:39:52;;;;;;;40.42;12.40;;;;;;;6.30;100.00;98707.66;4936710;28;20004;-78
2023/10/21 04:42:18;;;;;;;31.83;12.57;;;;;;;6.48;100.00;98720.50;4919348;28;20201;-77
2023/10/21 04:44:44;;;;;;;30.27;11.00;;;;;;;6.46;100.00;98722.53;4933389;28;20067;-77
2023/10/21 04:47:10;;;;;;;34.13;12.07;;;;;;;6.40;100.00;98722.47;4936968;28;20310;-77
2023/10/21 04:49:35;;;;;;;35.35;13.52;;;;;;;6.52;100.00;98721.78;4948722;29;20483;-77
2023/10/21 04:52:00;;;;;;;31.50;12.07;;;;;;;6.60;100.00;98723.50;4923210;28;20082;-78
2023/10/21 04:54:26;;;;;;;30.65;13.18;;;;;;;6.50;100.00;98726.44;4941263;28;20036;-78
2023/10/21 04:56:52;;;;;;;35.90;13.50;;;;;;;6.41;100.00;98718.78;4990502;28;20054;-77
2023/10/21 04:59:17;;;;;;;39.67;12.98;;;;;;;6.48;100.00;98728.44;4941373;28;20149;-78
2023/10/21 05:01:43;;;;;;;43.13;14.13;;;;;;;6.49;100.00;98730.13;4932882;28;20068;-78
2023/10/21 05:04:10;;;;;;;38.93;14.20;;;;;;;6.56;100.00;98740.81;4966519;28;20043;-77
2023/10/21 05:06:35;;;;;;;43.47;13.90;;;;;;;6.60;100.00;98734.09;4934108;28;20492;-77
2023/10/21 05:09:02;;;;;;;37.35;13.95;;;;;;;6.54;100.00;98735.69;4978508;28;20116;-78
2023/10/21 05:11:28;;;;;;;;;;;;;;;6.54;100.00;98746.28;4998074;28;20021;-77
2023/10/21 05:13:53;;;;;;;38.78;14.32;;;;;;;6.54;100.00;98740.16;5033564;28;20026;-77
2023/10/21 05:16:19;;;;;;;36.87;12.53;;;;;;;6.46;100.00;98750.84;4982008;28;20511;-78
2023/10/21 05:18:44;;;;;;;41.07;13.60;;;;;;;6.60;100.00;98765.91;4984762;28;21063;-78
2023/10/21 05:21:10;;;;;;;40.03;14.85;;;;;;;6.67;100.00;98768.66;5008138;28;20031;-78
2023/10/21 05:23:36;;;;;;;40.85;13.60;;;;;;;6.45;100.00;98770.44;4960241;28;20029;-77
2023/10/21 05:26:01;;;;;;;42.45;14.50;;;;;;;6.49;100.00;98769.88;5017008;28;20025;-78
2023/10/21 05:28:27;;;;;;;49.58;14.98;;;;;;;6.36;100.00;98769.69;4988508;28;20030;-78
2023/10/21 05:30:53;;;;;;;40.60;13.73;;;;;;;6.23;100.00;98780.94;4945856;28;20472;-78
2023/10/21 05:33:19;;;;;;;42.60;14.63;;;;;;;6.34;100.00;98788.47;5009642;28;20034;-78
2023/10/21 05:35:44;;;;;;;36.92;13.77;;;;;;;6.55;100.00;98800.13;4998095;28;20032;-78
2023/10/21 05:38:28;;;;;;;43.42;15.65;;;;;;;6.36;100.00;98795.38;5004591;28;20091;-78
2023/10/21 05:41:12;;;;;;;42.38;14.57;;;;;;;6.54;100.00;98803.78;5032976;28;20095;-78
2023/10/21 05:43:56;;;;;;;50.03;15.13;;;;;;;6.53;100.00;98810.09;5033365;28;20143;-77
2023/10/21 05:46:40;;;;;;;59.72;18.25;;;;;;;6.39;100.00;98808.25;5033501;28;20048;-78
2023/10/21 05:49:05;;;;;;;53.03;16.60;;;;;;;6.53;100.00;98802.13;4978743;28;20123;-79
2023/10/21 05:51:31;;;;;;;53.10;15.50;;;;;;;6.46;100.00;98806.53;4995491;28;20571;-78
2023/10/21 05:53:57;;;;;;;54.80;18.90;;;;;;;6.39;100.00;98809.13;4999460;28;20023;-78
2023/10/21 05:56:23;;;;;;;68.00;19.13;;;;;;;6.36;100.00;98808.63;5007976;28;20033;-78
2023/10/21 05:58:48;;;;;;;58.87;18.63;;;;;;;6.36;100.00;98817.41;5016169;28;20021;-78
2023/10/21 06:01:15;;;;;;;54.47;20.10;;;;;;;6.52;100.00;98827.00;5049604;28;20029;-78
2023/10/21 06:03:40;;;;;;;59.55;18.95;;;;;;;6.60;100.00;98824.25;4991892;28;20031;-77
2023/10/21 06:06:06;;;;;;;49.80;17.30;;;;;;;6.60;100.00;98842.81;4978688;28;20046;-78
2023/10/21 06:08:31;;;;;;;51.17;17.13;;;;;;;6.61;100.00;98847.13;4969158;28;20021;-77
2023/10/21 06:10:57;;;;;;;51.70;17.05;;;;;;;6.41;100.00;98841.53;4975640;28;20825;-78
2023/10/21 06:13:24;;;;;;;60.47;19.85;;;;;;;6.59;100.00;98854.44;4946727;28;20071;-79
2023/10/21 06:15:50;;;;;;;51.22;16.90;;;;;;;6.52;100.00;98850.88;4945023;28;20039;-79
2023/10/21 06:18:15;;;;;;;50.13;17.02;;;;;;;6.45;100.00;98845.47;4985933;28;20029;-78
2023/10/21 06:20:45;;;;;;;64.70;18.13;;;;;;;6.44;100.00;98853.59;4957367;28;20527;-79
2023/10/21 06:23:11;;;;;;;76.78;22.38;;;;;;;6.39;100.00;98850.69;5011475;28;20026;-79
2023/10/21 06:25:36;;;;;;;56.17;19.10;;;;;;;6.50;100.00;98852.88;5032799;28;20025;-78
2023/10/21 06:28:02;;;;;;;41.40;16.43;;;;;;;6.45;100.00;98863.22;5016104;28;20422;-78
2023/10/21 06:30:27;;;;;;;61.93;17.53;;;;;;;6.48;100.00;98868.97;5034412;28;20037;-78
2023/10/21 06:32:52;;;;;;;56.40;19.07;;;;;;;6.43;100.00;98881.13;5016222;28;20124;-78
2023/10/21 06:35:17;;;;;;;72.13;19.50;;;;;;;6.39;100.00;98879.84;5023752;28;20437;-79
2023/10/21 06:37:43;;;;;;;42.70;17.47;;;;;;;6.44;100.00;98873.00;4978722;28;20038;-78
2023/10/21 06:40:09;;;;;;;66.47;19.43;;;;;;;6.42;100.00;98884.78;5013146;28;20029;-79
2023/10/21 06:42:34;;;;;;;71.47;18.90;;;;;;;6.49;100.00;98889.19;4949016;28;20558;-79
2023/10/21 06:45:00;;;;;;;78.70;21.10;;;;;;;6.36;100.00;98890.81;5022813;28;20021;-80
2023/10/21 06:47:25;;;;;;;84.97;22.45;;;;;;;6.44;100.00;98901.31;4939825;28;20074;-79
2023/10/21 06:49:50;;;;;;;67.40;20.07;;;;;;;6.68;100.00;98895.78;4987749;28;20534;-78
2023/10/21 06:52:17;;;;;;;58.53;19.20;;;;;;;6.63;100.00;98889.38;4951610;28;20059;-77
2023/10/21 06:54:43;;;;;;;77.30;21.00;;;;;;;6.39;100.00;98887.78;5032220;28;20279;-79
2023/10/21 06:57:09;;;;;;;81.50;19.85;;;;;;;6.44;100.00;98885.41;4991203;28;20029;-79
2023/10/21 06:59:34;;;;;;;105.55;19.40;;;;;;;6.44;100.00;98877.47;5032457;28;20045;-78
2023/10/21 07:02:00;;;;;;;55.77;18.40;;;;;;;6.68;100.00;98894.97;5034184;28;20032;-79
2023/10/21 07:04:25;;;;;;;57.93;19.37;;;;;;;6.74;100.00;98894.22;5027597;28;20272;-79
2023/10/21 07:06:50;;;;;;;55.97;20.40;;;;;;;6.70;100.00;98899.06;5015497;28;20132;-79
2023/10/21 07:09:16;;;;;;;60.40;17.07;;;;;;;6.81;100.00;98902.25;5015964;28;20500;-80
2023/10/21 07:11:41;;;;;;;54.33;20.30;;;;;;;6.58;100.00;98897.88;5022368;28;20417;-80
2023/10/21 07:14:07;;;;;;;58.08;17.83;;;;;;;6.61;100.00;98902.81;4978446;28;20482;-76
2023/10/21 07:16:33;;;;;;;44.42;16.52;;;;;;;6.82;100.00;98911.88;5027839;28;20030;-79
2023/10/21 07:18:58;;;;;;;50.50;18.73;;;;;;;6.69;100.00;98908.00;5009521;28;20459;-79
2023/10/21 07:21:24;;;;;;;76.33;20.63;;;;;;;6.89;100.00;98907.50;4957083;23;20043;-77
2023/10/21 07:23:49;;;;;;;53.47;18.40;;;;;;;6.66;100.00;98912.88;4949815;28;20032;-77
2023/10/21 07:26:15;;;;;;;70.30;20.77;;;;;;;6.49;100.00;98909.56;5017465;28;20071;-76
2023/10/21 07:28:40;;;;;;;63.03;20.30;;;;;;;6.70;100.00;98914.97;4983165;28;20286;-77
2023/10/21 07:31:05;;;;;;;63.70;19.20;;;;;;;6.74;100.00;98916.28;4990143;28;20038;-78
2023/10/21 07:33:31;;;;;;;52.10;16.87;;;;;;;7.00;100.00;98925.59;4969493;28;20155;-77
2023/10/21 07:35:56;;;;;;;61.33;18.97;;;;;;;7.10;100.00;98928.78;4977337;28;20327;-76
2023/10/21 07:38:21;;;;;;;46.77;15.83;;;;;;;7.19;100.00;98932.16;4961495;28;20537;-77
2023/10/21 07:40:48;;;;;;;79.25;19.45;;;;;;;6.87;100.00;98928.06;4990878;28;20392;-77
2023/10/21 07:43:17;;;;;;;55.92;19.35;;;;;;;7.00;100.00;98936.22;4975724;28;20420;-77
2023/10/21 07:45:43;;;;;;;48.33;16.65;;;;;;;7.21;100.00;98938.13;4993531;28;20094;-77
2023/10/21 07:48:10;;;;;;;51.38;19.27;;;;;;;7.32;100.00;98944.78;4983191;28;20035;-77
2023/10/21 07:50:35;;;;;;;49.60;18.05;;;;;;;7.32;100.00;98947.44;4951851;28;20039;-77
2023/10/21 07:53:01;;;;;;;43.33;16.27;;;;;;;7.19;100.00;98940.94;4954971;28;20103;-77
2023/10/21 07:55:26;;;;;;;55.10;18.67;;;;;;;6.90;100.00;98940.94;4990927;28;20351;-77
2023/10/21 07:57:52;;;;;;;55.00;19.10;;;;;;;6.87;100.00;98951.94;4961569;28;20381;-77
2023/10/21 08:00:17;;;;;;;49.55;17.55;;;;;;;7.11;100.00;98964.91;4953516;28;20039;-77
2023/10/21 08:02:43;;;;;;;39.95;16.05;;;;;;;7.07;100.00;98973.44;4961694;28;20614;-76
2023/10/21 08:05:08;;;;;;;38.92;17.05;;;;;;;7.27;100.00;98979.03;4960730;28;20041;-77
2023/10/21 08:07:35;;;;;;;48.13;16.65;;;;;;;7.37;100.00;98988.38;4946615;28;20408;-76
2023/10/21 08:10:01;;;;;;;44.55;17.38;;;;;;;7.19;100.00;98972.81;4947401;28;20031;-77
2023/10/21 08:12:28;;;;;;;59.55;19.63;;;;;;;7.45;100.00;98976.81;4959600;28;20027;-77
2023/10/21 08:14:53;;;;;;;49.33;16.40;;;;;;;7.40;100.00;98973.88;4965408;28;20032;-77
2023/10/21 08:17:18;;;;;;;43.83;16.67;;;;;;;7.65;100.00;98970.91;4959523;28;20035;-76
2023/10/21 08:19:46;;;;;;;42.30;16.13;;;;;;;7.80;100.00;98969.03;4961444;28;20034;-77
2023/10/21 08:22:12;;;;;;;49.92;17.52;;;;;;;7.53;100.00;98958.09;4975961;28;20035;-77
2023/10/21 08:24:38;;;;;;;45.15;17.17;;;;;;;7.49;100.00;98972.78;4956149;28;20515;-77
2023/10/21 08:27:04;;;;;;;36.10;15.67;;;;;;;7.30;100.00;98978.63;4966648;28;20581;-76
2023/10/21 08:29:30;;;;;;;50.72;18.48;;;;;;;7.53;100.00;98989.97;4939976;28;20030;-76
2023/10/21 08:31:55;;;;;;;48.35;17.52;;;;;;;7.50;100.00;98985.03;4951820;28;20035;-77
2023/10/21 08:34:20;;;;;;;40.50;16.53;;;;;;;7.57;100.00;98993.09;4949293;28;20035;-77
2023/10/21 08:36:46;;;;;;;41.40;16.90;;;;;;;7.51;100.00;98986.66;4941095;28;20073;-77
2023/10/21 08:39:11;;;;;;;49.30;18.37;;;;;;;7.39;100.00;98985.50;4950146;28;20126;-77
2023/10/21 08:41:38;;;;;;;45.22;17.58;;;;;;;7.56;100.00;98999.38;4997527;28;20038;-76
2023/10/21 08:44:06;;;;;;;54.22;18.73;;;;;;;7.57;100.00;98998.41;4955412;28;20050;-77
2023/10/21 08:46:33;;;;;;;39.70;15.65;;;;;;;7.55;100.00;99008.38;4943720;28;20027;-77
2023/10/21 08:49:00;;;;;;;45.88;17.27;;;;;;;7.40;100.00;99006.56;4964205;28;20069;-77
2023/10/21 08:51:26;;;;;;;53.80;19.38;;;;;;;7.51;100.00;99021.19;4950361;28;20081;-77
2023/10/21 08:53:53;;;;;;;51.50;18.67;;;;;;;7.67;100.00;99032.63;4997337;28;20031;-77
2023/10/21 08:56:19;;;;;;;54.63;18.52;;;;;;;7.76;100.00;99031.53;5002611;28;20559;-76
2023/10/21 08:58:46;;;;;;;47.22;19.08;;;;;;;7.76;100.00;99024.38;4973736;28;20025;-77
2023/10/21 09:01:11;;;;;;;49.50;19.80;;;;;;;7.64;100.00;99017.06;4973556;28;20043;-77
2023/10/21 09:03:37;;;;;;;52.88;19.40;;;;;;;7.88;100.00;99027.38;5029512;28;20025;-77
2023/10/21 09:06:13;;;;;;;55.97;18.83;;;;;;;7.75;100.00;99029.84;5013619;28;20501;-77
2023/10/21 09:08:41;;;;;;;48.97;18.35;;;;;;;7.63;100.00;99026.03;5027816;28;20024;-77
2023/10/21 09:11:13;;;;;;;46.55;20.02;;;;;;;7.96;100.00;99048.53;4947755;28;20027;-76
2023/10/21 09:13:39;;;;;;;53.28;20.27;;;;;;;7.98;100.00;99045.66;5008776;28;20035;-77
2023/10/21 09:16:29;;;;;;;46.60;18.50;;;;;;;8.00;100.00;99044.47;5033519;28;20054;-77
2023/10/21 09:19:04;;;;;;;50.83;19.90;;;;;;;7.95;100.00;99046.84;4992041;28;20043;-77
2023/10/21 09:21:42;;;;;;;51.47;19.33;;;;;;;8.02;100.00;99042.44;4993240;28;20035;-77
2023/10/21 09:24:10;;;;;;;73.30;32.17;;;;;;;8.06;100.00;99042.09;5002788;28;20078;-77
2023/10/21 09:26:46;;;;;;;58.10;24.63;;;;;;;8.19;100.00;99053.69;4985836;28;20033;-76
2023/10/21 09:29:13;;;;;;;49.35;21.48;;;;;;;8.30;100.00;99057.66;4967344;28;20025;-76
2023/10/21 09:31:52;;;;;;;49.13;22.05;;;;;;;8.41;100.00;99059.03;5018562;28;20491;-77
2023/10/21 09:34:29;;;;;;;52.72;26.48;;;;;;;8.33;100.00;99051.97;4991974;28;20070;-76
2023/10/21 09:37:02;;;;;;;51.10;21.77;;;;;;;8.49;100.00;99064.22;5000916;28;20041;-77
2023/10/21 09:39:32;;;;;;;49.13;21.30;;;;;;;8.51;100.00;99061.38;4990919;28;20152;-76
2023/10/21 09:42:01;;;;;;;52.25;21.80;;;;;;;8.26;100.00;99053.72;5052293;28;20084;-76
2023/10/21 09:44:27;;;;;;;44.80;20.15;;;;;;;8.73;100.00;99067.50;5052375;28;20032;-76
2023/10/21 09:46:55;;;;;;;36.45;18.60;;;;;;;8.82;100.00;99067.19;5052616;28;20071;-77
2023/10/21 09:49:23;;;;;;;33.90;16.80;;;;;;;8.79;100.00;99056.13;5068589;28;20033;-77
2023/10/21 09:52:06;;;;;;;35.15;15.45;;;;;;;8.90;100.00;99065.38;5024002;28;20499;-77
2023/10/21 09:54:43;;;;;;;31.50;14.55;;;;;;;8.77;100.00;99053.63;4966713;28;20031;-77
2023/10/21 09:57:12;;;;;;;25.52;13.70;;;;;;;8.84;100.00;99051.84;4944467;28;20479;-76
2023/10/21 09:59:39;;;;;;;18.77;11.40;;;;;;;8.95;100.00;99055.00;5032486;28;20021;-75
2023/10/21 10:02:06;;;;;;;25.00;11.82;;;;;;;9.12;100.00;99052.88;4978470;28;20033;-77
2023/10/21 10:04:34;;;;;;;19.45;10.02;;;;;;;8.99;100.00;99056.25;5035038;28;20067;-76
2023/10/21 10:06:59;;;;;;;17.33;10.15;;;;;;;8.77;100.00;99048.31;5008708;28;20044;-77
2023/10/21 10:09:28;;;;;;;18.17;11.93;;;;;;;8.94;100.00;99056.00;5030660;28;20401;-77
2023/10/21 10:12:01;;;;;;;16.95;8.90;;;;;;;8.96;100.00;99046.81;5036432;28;20530;-76
2023/10/21 10:14:30;;;;;;;16.23;8.70;;;;;;;8.92;100.00;99053.56;5031468;28;20543;-76
2023/10/21 10:16:56;;;;;;;20.50;10.25;;;;;;;8.98;100.00;99051.97;5051264;28;20032;-77
2023/10/21 10:19:42;;;;;;;18.85;9.77;;;;;;;9.11;100.00;99052.06;5051680;28;20033;-77
2023/10/21 10:22:21;;;;;;;18.92;10.27;;;;;;;8.87;100.00;99055.97;5012184;28;20029;-77
2023/10/21 10:25:15;;;;;;;20.13;11.18;;;;;;;8.82;100.00;99059.19;5049912;28;20033;-75
2023/10/21 10:27:42;;;;;;;21.20;11.55;;;;;;;8.89;100.00;99064.56;5040678;28;20044;-77
2023/10/21 10:30:30;;;;;;;;;;;;;;;9.02;100.00;99078.00;4994866;28;20027;-77
2023/10/21 10:32:57;;;;;;;22.42;11.63;;;;;;;9.02;100.00;99079.84;4955186;28;19960;-77
2023/10/21 10:35:34;;;;;;;25.02;12.63;;;;;;;8.97;100.00;99082.25;4990861;28;20028;-76
2023/10/21 10:38:01;;;;;;;27.70;13.80;;;;;;;8.99;100.00;99082.88;5020776;28;20501;-77
2023/10/21 10:40:38;;;;;;;26.10;14.48;;;;;;;9.22;100.00;99099.44;5068002;28;20424;-77
2023/10/21 10:43:10;;;;;;;27.15;16.38;;;;;;;9.08;100.00;99097.69;5049544;28;20035;-77
2023/10/21 10:45:36;;;;;;;24.65;14.25;;;;;;;9.23;100.00;99108.25;4952584;28;20031;-77
2023/10/21 10:48:03;;;;;;;23.15;14.00;;;;;;;9.03;100.00;99100.94;5007050;28;20043;-77
2023/10/21 10:50:30;;;;;;;27.98;16.00;;;;;;;9.00;100.00;99103.97;4981002;28;20039;-76
2023/10/21 10:52:56;;;;;;;29.98;15.05;;;;;;;8.87;100.00;99099.38;5040533;28;20047;-77
2023/10/21 10:55:22;;;;;;;37.65;21.23;;;;;;;9.00;100.00;99108.50;5051119;28;20112;-76
2023/10/21 10:57:53;;;;;;;33.92;19.13;;;;;;;9.19;100.00;99126.44;5065746;28;20032;-77
2023/10/21 11:00:22;;;;;;;38.03;18.38;;;;;;;9.41;100.00;99123.72;5052942;28;20484;-77
2023/10/21 11:02:49;;;;;;;25.15;14.15;;;;;;;9.54;100.00;99125.69;5055145;28;20013;-78
2023/10/21 11:05:16;;;;;;;22.40;12.75;;;;;;;9.69;100.00;99129.03;4942466;28;20027;-78
2023/10/21 11:07:41;;;;;;;22.20;12.05;;;;;;;9.42;100.00;99122.72;4943824;28;20027;-78
2023/10/21 11:10:07;;;;;;;11.83;7.67;;;;;;;9.48;100.00;99122.78;5048437;28;20037;-79
2023/10/21 11:12:32;;;;;;;12.23;7.35;;;;;;;9.56;100.00;99132.47;5021832;28;20104;-80
2023/10/21 11:15:00;;;;;;;9.18;5.93;;;;;;;9.45;100.00;99125.81;5066297;28;20041;-79
2023/10/21 11:17:26;;;;;;;6.80;4.07;;;;;;;9.44;100.00;99126.03;5025355;28;20517;-79
2023/10/21 11:19:52;;;;;;;6.50;3.10;;;;;;;9.38;100.00;99126.78;5049619;28;20064;-79
2023/10/21 11:22:26;;;;;;;5.10;3.50;;;;;;;9.39;100.00;99136.41;5049330;28;20033;-80
2023/10/21 11:24:55;;;;;;;4.43;3.15;;;;;;;9.10;100.00;99135.59;5049504;28;20280;-81